Weather at Pauk Airport

Public forecast

Using degrees Celsius for public forecast. Weather courtesy of forecast.io.

Closest aviation weather report (METAR) to Pauk Airport

Report is more than 2 hours old.

Closest report is Mandalay International Airport, 84.6 nm (156.7 km) E. Retrieved 2020/09/29 11:30 UTC (2 hours ago):

VYMD 291130Z 36003KT 6000 BKN015 FEW018CB OVC090 29/25 Q1003

Closest aviation forecast (TAF) to Pauk Airport

Closest forecast is Mandalay International Airport, 84.6 nm (156.7 km) E. Retrieved 2020/09/29 12:00 UTC (2 hours ago):

TAF VYMD 291100Z 2912/3012 18007KT 7000 BKN020 FEW025CB TEMPO 2912/2918 19010KT 5000 -TSRA BKN018 FEW020CB BKN100